createdAt,value
2022-12-11T00:00:10.206Z,6.50
2022-12-11T00:02:57.214Z,6.43
2022-12-11T00:05:24.089Z,6.25
2022-12-11T00:07:51.123Z,6.50
2022-12-11T00:10:17.954Z,7.32
2022-12-11T00:12:44.875Z,6.87
2022-12-11T00:15:12.025Z,6.20
2022-12-11T00:17:39.251Z,5.68
2022-12-11T00:20:06.410Z,5.28
2022-12-11T00:22:33.373Z,5.38
2022-12-11T00:25:00.019Z,5.43
2022-12-11T00:27:26.947Z,5.30
2022-12-11T00:29:53.622Z,5.53
2022-12-11T00:32:20.488Z,5.63
2022-12-11T00:34:47.101Z,5.18
2022-12-11T00:37:14.099Z,5.37
2022-12-11T00:39:40.867Z,4.93
2022-12-11T00:42:08.439Z,4.95
2022-12-11T00:44:35.441Z,4.90
2022-12-11T00:47:02.754Z,6.20
2022-12-11T00:49:29.641Z,5.40
2022-12-11T00:51:56.542Z,4.88
2022-12-11T00:54:23.159Z,5.00
2022-12-11T00:56:50.767Z,5.38
2022-12-11T00:59:17.446Z,4.28
2022-12-11T01:01:44.501Z,4.60
2022-12-11T01:04:11.195Z,4.55
2022-12-11T01:06:39.337Z,4.85
2022-12-11T01:09:32.120Z,4.72
2022-12-11T01:11:59.104Z,4.43
2022-12-11T01:14:27.195Z,4.93
2022-12-11T01:16:54.162Z,5.07
2022-12-11T01:19:20.876Z,4.85
2022-12-11T01:21:47.793Z,5.07
2022-12-11T01:24:14.628Z,4.75
2022-12-11T01:26:41.502Z,4.80
2022-12-11T01:29:08.128Z,4.13
2022-12-11T01:31:35.131Z,4.78
2022-12-11T01:34:01.735Z,4.80
2022-12-11T01:36:28.643Z,5.10
2022-12-11T01:38:55.354Z,5.63
2022-12-11T01:41:22.535Z,5.22
2022-12-11T01:44:15.608Z,5.68
2022-12-11T01:46:43.259Z,5.32
2022-12-11T01:49:13.762Z,4.80
2022-12-11T01:51:52.961Z,5.13
2022-12-11T01:54:22.346Z,6.32
2022-12-11T01:56:52.342Z,6.47
2022-12-11T01:59:23.316Z,7.78
2022-12-11T02:02:01.140Z,5.75
2022-12-11T02:04:29.534Z,5.93
2022-12-11T02:06:56.449Z,4.93
2022-12-11T02:09:32.411Z,4.93
2022-12-11T02:12:23.604Z,5.55
2022-12-11T02:15:00.732Z,4.28
2022-12-11T02:17:46.669Z,5.07
2022-12-11T02:20:22.091Z,4.82
2022-12-11T02:23:13.513Z,4.60
2022-12-11T02:25:57.357Z,5.32
2022-12-11T02:29:01.411Z,5.00
2022-12-11T02:31:41.353Z,4.93
2022-12-11T02:34:26.050Z,4.50
2022-12-11T02:36:59.244Z,4.43
2022-12-11T02:39:27.865Z,4.70
2022-12-11T02:41:55.523Z,4.40
2022-12-11T02:44:26.584Z,3.97
2022-12-11T02:46:53.949Z,4.82
2022-12-11T02:49:23.241Z,4.50
2022-12-11T02:51:51.949Z,4.43
2022-12-11T02:54:28.320Z,4.30
2022-12-11T02:57:02.038Z,4.27
2022-12-11T02:59:49.609Z,3.88
2022-12-11T03:02:17.795Z,4.32
2022-12-11T03:04:47.554Z,3.80
2022-12-11T03:07:19.321Z,3.25
2022-12-11T03:09:47.787Z,3.30
2022-12-11T03:12:24.085Z,4.00
2022-12-11T03:14:51.121Z,3.63
2022-12-11T03:17:30.231Z,3.55
2022-12-11T03:20:15.482Z,3.58
2022-12-11T03:22:52.879Z,3.23
2022-12-11T03:25:28.363Z,4.05
2022-12-11T03:28:05.598Z,4.15
2022-12-11T03:30:36.239Z,4.25
2022-12-11T03:33:06.866Z,4.57
2022-12-11T03:35:41.203Z,6.20
2022-12-11T03:38:21.133Z,6.80
2022-12-11T03:40:52.435Z,5.00
2022-12-11T03:43:21.297Z,3.80
2022-12-11T03:45:49.678Z,3.53
2022-12-11T03:48:18.057Z,3.37
2022-12-11T03:50:46.943Z,3.10
2022-12-11T03:53:14.166Z,3.05
2022-12-11T03:55:41.940Z,3.20
2022-12-11T03:58:08.814Z,4.00
2022-12-11T04:00:36.208Z,4.63
2022-12-11T04:03:13.899Z,3.85
2022-12-11T04:05:47.150Z,5.03
2022-12-11T04:08:14.187Z,7.15
2022-12-11T04:10:41.430Z,7.70
2022-12-11T04:13:08.636Z,5.80
2022-12-11T04:15:36.484Z,5.47
2022-12-11T04:18:22.448Z,3.72
2022-12-11T04:21:07.750Z,4.80
2022-12-11T04:23:53.200Z,6.78
2022-12-11T04:26:21.162Z,4.40
2022-12-11T04:28:49.083Z,5.18
2022-12-11T04:31:21.783Z,5.18
2022-12-11T04:33:48.545Z,4.65
2022-12-11T04:36:16.332Z,3.58
2022-12-11T04:38:43.007Z,3.90
2022-12-11T04:41:13.087Z,3.38
2022-12-11T04:43:40.233Z,2.47
2022-12-11T04:46:19.361Z,3.90
2022-12-11T04:48:46.544Z,4.53
2022-12-11T04:51:14.246Z,3.70
2022-12-11T04:53:41.138Z,3.30
2022-12-11T04:56:10.524Z,3.63
2022-12-11T04:58:38.143Z,4.25
2022-12-11T05:01:10.132Z,3.35
2022-12-11T05:03:37.273Z,2.90
2022-12-11T05:06:04.532Z,3.17
2022-12-11T05:08:31.132Z,3.28
2022-12-11T05:11:04.300Z,2.92
2022-12-11T05:13:31.894Z,3.47
2022-12-11T05:15:59.240Z,3.17
2022-12-11T05:18:26.395Z,3.75
2022-12-11T05:21:01.687Z,3.33
2022-12-11T05:23:28.660Z,3.28
2022-12-11T05:25:57.707Z,3.20
2022-12-11T05:28:28.307Z,2.83
2022-12-11T05:31:00.246Z,3.08
2022-12-11T05:33:27.649Z,2.80
2022-12-11T05:35:54.550Z,3.10
2022-12-11T05:38:22.569Z,4.82
2022-12-11T05:41:00.309Z,5.00
2022-12-11T05:43:29.064Z,4.93
2022-12-11T05:45:57.133Z,5.90
2022-12-11T05:48:23.871Z,7.13
2022-12-11T05:51:01.576Z,6.90
2022-12-11T05:53:28.657Z,4.57
2022-12-11T05:56:01.787Z,5.35
2022-12-11T05:58:28.473Z,5.05
2022-12-11T06:00:55.539Z,5.35
2022-12-11T06:03:22.153Z,5.95
2022-12-11T06:05:49.396Z,5.97
2022-12-11T06:08:16.083Z,5.60
2022-12-11T06:10:47.712Z,5.32
2022-12-11T06:13:15.156Z,4.65
2022-12-11T06:15:42.491Z,2.95
2022-12-11T06:18:09.407Z,3.17
2022-12-11T06:20:36.503Z,2.78
2022-12-11T06:23:03.537Z,4.30
2022-12-11T06:25:31.032Z,3.20
2022-12-11T06:27:57.951Z,4.18
2022-12-11T06:30:37.570Z,7.63
2022-12-11T06:33:06.736Z,6.07
2022-12-11T06:35:40.064Z,3.95
2022-12-11T06:38:08.456Z,6.55
2022-12-11T06:40:35.404Z,4.28
2022-12-11T06:43:02.072Z,3.70
2022-12-11T06:45:28.975Z,3.45
2022-12-11T06:47:55.676Z,3.53
2022-12-11T06:50:22.571Z,3.65
2022-12-11T06:52:49.231Z,4.07
2022-12-11T06:55:16.364Z,4.07
2022-12-11T06:57:42.979Z,4.03
2022-12-11T07:00:10.639Z,2.58
2022-12-11T07:02:37.394Z,3.47
2022-12-11T07:05:05.031Z,2.92
2022-12-11T07:07:31.658Z,3.73
2022-12-11T07:10:04.052Z,3.30
2022-12-11T07:12:34.106Z,3.28
2022-12-11T07:15:01.014Z,3.47
2022-12-11T07:17:28.820Z,2.92
2022-12-11T07:19:56.009Z,3.37
2022-12-11T07:22:22.958Z,5.25
2022-12-11T07:24:50.015Z,8.30
2022-12-11T07:27:16.790Z,6.80
2022-12-11T07:29:45.003Z,4.75
2022-12-11T07:32:11.813Z,5.07
2022-12-11T07:34:39.003Z,5.85
2022-12-11T07:37:05.996Z,6.18
2022-12-11T07:39:32.947Z,6.45
2022-12-11T07:41:59.577Z,4.18
2022-12-11T07:44:26.512Z,4.07
2022-12-11T07:46:53.117Z,5.57
2022-12-11T07:49:20.070Z,3.97
2022-12-11T07:51:46.829Z,4.72
2022-12-11T07:54:16.674Z,7.93
2022-12-11T07:56:52.796Z,7.63
2022-12-11T07:59:21.212Z,6.05
2022-12-11T08:01:48.040Z,5.95
2022-12-11T08:04:15.906Z,8.02
2022-12-11T08:06:43.207Z,8.15
2022-12-11T08:09:20.371Z,5.83
2022-12-11T08:11:51.235Z,4.43
2022-12-11T08:14:19.579Z,3.75
2022-12-11T08:16:46.456Z,4.18
2022-12-11T08:19:13.847Z,5.45
2022-12-11T08:21:40.870Z,4.60
2022-12-11T08:24:09.101Z,6.80
2022-12-11T08:26:36.159Z,8.48
2022-12-11T08:29:04.137Z,6.63
2022-12-11T08:31:33.236Z,5.78
2022-12-11T08:34:00.515Z,7.20
2022-12-11T08:36:27.360Z,7.28
2022-12-11T08:38:55.780Z,5.75
2022-12-11T08:41:28.396Z,6.82
2022-12-11T08:43:57.573Z,5.82
2022-12-11T08:46:26.951Z,5.27
2022-12-11T08:48:54.964Z,4.63
2022-12-11T08:51:24.049Z,4.38
2022-12-11T08:53:51.362Z,4.32
2022-12-11T08:56:20.607Z,4.10
2022-12-11T08:58:47.843Z,4.77
2022-12-11T09:01:26.067Z,7.40
2022-12-11T09:03:54.507Z,7.60
2022-12-11T09:06:23.135Z,6.80
2022-12-11T09:08:53.023Z,7.65
2022-12-11T09:11:26.244Z,6.90
2022-12-11T09:13:54.055Z,5.68
2022-12-11T09:16:23.382Z,5.88
2022-12-11T09:18:52.768Z,6.03
2022-12-11T09:21:22.160Z,5.95
2022-12-11T09:23:50.085Z,7.33
2022-12-11T09:26:18.259Z,8.43
2022-12-11T09:28:46.987Z,11.68
2022-12-11T09:31:16.968Z,11.00
2022-12-11T09:33:44.647Z,9.15
2022-12-11T09:36:12.037Z,10.27
2022-12-11T09:38:39.446Z,9.85
2022-12-11T09:41:37.112Z,10.30
2022-12-11T09:44:16.323Z,10.88
2022-12-11T09:46:43.858Z,14.55
2022-12-11T09:49:41.339Z,14.13
2022-12-11T09:52:31.927Z,13.73
2022-12-11T09:55:16.384Z,13.55
2022-12-11T09:57:52.169Z,11.52
2022-12-11T10:00:21.660Z,11.15
2022-12-11T10:02:59.320Z,12.43
2022-12-11T10:05:38.393Z,12.10
2022-12-11T10:08:28.739Z,10.88
2022-12-11T10:11:21.591Z,11.15
2022-12-11T10:14:02.957Z,11.80
2022-12-11T10:16:34.651Z,10.27
2022-12-11T10:19:01.410Z,11.52
2022-12-11T10:21:39.947Z,10.30
2022-12-11T10:24:41.925Z,9.90
2022-12-11T10:27:19.913Z,10.75
2022-12-11T10:29:57.965Z,9.23
2022-12-11T10:32:33.676Z,9.85
2022-12-11T10:35:05.300Z,10.00
2022-12-11T10:37:32.453Z,11.55
2022-12-11T10:39:59.243Z,11.60
2022-12-11T10:42:26.357Z,11.70
2022-12-11T10:45:01.371Z,9.93
2022-12-11T10:47:29.050Z,9.98
2022-12-11T10:49:59.237Z,10.27
2022-12-11T10:52:31.649Z,10.48
2022-12-11T10:55:06.928Z,9.33
2022-12-11T10:57:39.181Z,9.00
2022-12-11T11:00:08.010Z,8.85
2022-12-11T11:02:37.680Z,12.23
2022-12-11T11:05:17.575Z,12.50
2022-12-11T11:07:44.584Z,10.70
2022-12-11T11:10:11.307Z,10.60
2022-12-11T11:12:44.459Z,12.80
2022-12-11T11:15:24.852Z,12.77
2022-12-11T11:17:55.789Z,12.82
2022-12-11T11:20:31.242Z,12.80
2022-12-11T11:23:01.566Z,12.10
2022-12-11T11:25:30.754Z,12.43
2022-12-11T11:28:01.139Z,14.90
2022-12-11T11:30:35.629Z,14.90
2022-12-11T11:33:06.619Z,12.77
2022-12-11T11:35:33.317Z,12.00
2022-12-11T11:38:21.053Z,13.23
2022-12-11T11:41:25.295Z,12.32
2022-12-11T11:43:57.821Z,11.75
2022-12-11T11:46:49.205Z,11.07
2022-12-11T11:49:26.053Z,9.93
2022-12-11T11:52:01.104Z,10.02
2022-12-11T11:54:39.687Z,9.40
2022-12-11T11:57:23.036Z,9.35
2022-12-11T11:59:55.910Z,9.50
2022-12-11T12:02:22.714Z,8.93
2022-12-11T12:04:51.361Z,8.98
2022-12-11T12:07:44.280Z,8.88
